createdAt,value
2018-02-24T00:00:44.813Z,50.6
2018-02-24T00:01:47.182Z,50.6
2018-02-24T00:02:49.549Z,50.5
2018-02-24T00:03:51.918Z,50.4
2018-02-24T00:04:54.566Z,50.4
2018-02-24T00:05:56.932Z,50.5
2018-02-24T00:06:59.305Z,50.4
2018-02-24T00:08:01.671Z,50.5
2018-02-24T00:09:04.034Z,50.6
2018-02-24T00:10:06.398Z,50.6
2018-02-24T00:11:08.760Z,50.6
2018-02-24T00:12:11.132Z,50.7
2018-02-24T00:13:13.500Z,50.6
2018-02-24T00:14:15.874Z,50.7
2018-02-24T00:15:18.249Z,50.6
2018-02-24T00:16:20.616Z,50.6
2018-02-24T00:17:22.994Z,50.6
2018-02-24T00:18:25.357Z,50.6
2018-02-24T00:19:27.719Z,50.7
2018-02-24T00:20:30.090Z,50.7
2018-02-24T00:21:32.453Z,50.6
2018-02-24T00:22:34.821Z,50.6
2018-02-24T00:23:37.194Z,50.7
2018-02-24T00:24:39.547Z,50.7
2018-02-24T00:25:41.914Z,50.6
2018-02-24T00:26:44.290Z,50.7
2018-02-24T00:27:46.934Z,50.7
2018-02-24T00:28:49.305Z,50.6
2018-02-24T00:29:51.670Z,50.6
2018-02-24T00:30:54.030Z,50.7
2018-02-24T00:31:56.410Z,50.7
2018-02-24T00:32:58.780Z,50.7
2018-02-24T00:34:01.158Z,50.7
2018-02-24T00:35:03.809Z,50.7
2018-02-24T00:36:06.171Z,50.7
2018-02-24T00:37:08.542Z,50.6
2018-02-24T00:38:10.912Z,50.6
2018-02-24T00:39:13.549Z,50.7
2018-02-24T00:40:15.917Z,50.7
2018-02-24T00:41:18.281Z,50.7
2018-02-24T00:42:20.657Z,50.7
2018-02-24T00:43:23.024Z,50.7
2018-02-24T00:44:25.403Z,50.7
2018-02-24T00:45:27.764Z,50.6
2018-02-24T00:46:30.138Z,50.5
2018-02-24T00:47:32.774Z,50.5
2018-02-24T00:48:35.149Z,50.6
2018-02-24T00:49:37.520Z,50.6
2018-02-24T00:50:39.876Z,50.7
2018-02-24T00:51:42.260Z,50.7
2018-02-24T00:52:44.906Z,50.8
2018-02-24T00:53:47.276Z,50.8
2018-02-24T00:54:49.650Z,50.8
2018-02-24T00:55:52.065Z,50.8
2018-02-24T00:56:54.375Z,50.7
2018-02-24T00:57:56.762Z,50.7
2018-02-24T00:58:59.122Z,50.7
2018-02-24T01:00:01.486Z,50.7
2018-02-24T01:01:04.135Z,50.7
2018-02-24T01:02:06.498Z,50.8
2018-02-24T01:03:08.878Z,50.7
2018-02-24T01:04:11.250Z,50.7
2018-02-24T01:05:13.610Z,50.7
2018-02-24T01:06:15.985Z,50.7
2018-02-24T01:07:18.350Z,50.6
2018-02-24T01:08:20.727Z,50.7
2018-02-24T01:09:23.097Z,50.7
2018-02-24T01:10:25.460Z,50.7
2018-02-24T01:11:27.836Z,50.7
2018-02-24T01:12:30.215Z,50.6
2018-02-24T01:13:32.572Z,50.5
2018-02-24T01:14:35.224Z,50.4
2018-02-24T01:15:37.582Z,50.5
2018-02-24T01:16:39.951Z,50.6
2018-02-24T01:17:42.316Z,50.7
2018-02-24T01:18:44.678Z,50.6
2018-02-24T01:19:47.059Z,50.8
2018-02-24T01:20:49.705Z,50.8
2018-02-24T01:21:52.380Z,50.8
2018-02-24T01:22:54.753Z,50.9
2018-02-24T01:23:57.122Z,51
2018-02-24T01:24:59.494Z,51
2018-02-24T01:26:02.149Z,51
2018-02-24T01:27:04.506Z,51
2018-02-24T01:28:06.882Z,51
2018-02-24T01:29:09.533Z,51
2018-02-24T01:30:11.886Z,51
2018-02-24T01:31:14.268Z,50.9
2018-02-24T01:32:16.633Z,51
2018-02-24T01:33:19.297Z,51
2018-02-24T01:34:21.952Z,50.9
2018-02-24T01:35:24.322Z,50.9
2018-02-24T01:36:26.692Z,50.8
2018-02-24T01:37:29.070Z,50.9
2018-02-24T01:38:31.726Z,51
2018-02-24T01:39:34.093Z,50.9
2018-02-24T01:40:36.469Z,51
2018-02-24T01:41:38.832Z,50.9
2018-02-24T01:42:41.195Z,50.9
2018-02-24T01:43:43.573Z,50.9
2018-02-24T01:44:45.931Z,50.9
2018-02-24T01:45:48.584Z,50.9
2018-02-24T01:46:50.946Z,50.9
2018-02-24T01:47:53.596Z,50.8
2018-02-24T01:48:55.966Z,50.7
2018-02-24T01:49:58.336Z,50.8
2018-02-24T01:51:00.702Z,50.7
2018-02-24T01:52:03.076Z,50.8
2018-02-24T01:53:05.449Z,50.8
2018-02-24T01:54:07.820Z,50.8
2018-02-24T01:55:10.178Z,50.8
2018-02-24T01:56:12.576Z,50.8
2018-02-24T01:57:14.917Z,50.9
2018-02-24T01:58:17.288Z,50.9
2018-02-24T01:59:19.648Z,51
2018-02-24T02:00:22.018Z,51
2018-02-24T02:01:24.380Z,51.1
2018-02-24T02:02:26.755Z,51.1
2018-02-24T02:03:29.123Z,51.1
2018-02-24T02:04:31.754Z,51.1
2018-02-24T02:05:34.133Z,51.1
2018-02-24T02:06:36.494Z,51.1
2018-02-24T02:07:38.861Z,51.1
2018-02-24T02:08:41.513Z,51.1
2018-02-24T02:09:43.878Z,51.1
2018-02-24T02:10:46.240Z,51.1
2018-02-24T02:11:48.616Z,51
2018-02-24T02:12:50.980Z,51
2018-02-24T02:13:53.345Z,51
2018-02-24T02:14:55.710Z,51
2018-02-24T02:15:58.079Z,50.9
2018-02-24T02:17:00.453Z,51.1
2018-02-24T02:18:02.826Z,51.1
2018-02-24T02:19:05.503Z,51.1
2018-02-24T02:20:07.864Z,51.1
2018-02-24T02:21:10.238Z,51
2018-02-24T02:22:12.596Z,51.1
2018-02-24T02:23:14.967Z,51.1
2018-02-24T02:24:17.338Z,51
2018-02-24T02:25:19.711Z,51
2018-02-24T02:26:22.097Z,51.1
2018-02-24T02:27:24.486Z,51
2018-02-24T02:28:26.837Z,51.1
2018-02-24T02:29:29.201Z,51.1
2018-02-24T02:30:31.583Z,51.1
2018-02-24T02:31:33.952Z,51
2018-02-24T02:32:36.328Z,51
2018-02-24T02:33:38.702Z,51
2018-02-24T02:34:41.070Z,51.1
2018-02-24T02:35:43.736Z,51.2
2018-02-24T02:36:46.100Z,51.2
2018-02-24T02:37:48.457Z,51.1
2018-02-24T02:38:51.112Z,51.1
2018-02-24T02:39:53.767Z,51.1
2018-02-24T02:40:56.135Z,51
2018-02-24T02:41:58.505Z,51.1
2018-02-24T02:43:00.883Z,51
2018-02-24T02:44:03.264Z,50.9
2018-02-24T02:45:05.625Z,51
2018-02-24T02:46:08.279Z,51.1
2018-02-24T02:47:10.650Z,51.2
2018-02-24T02:48:13.016Z,51.1
2018-02-24T02:49:15.382Z,51.1
2018-02-24T02:50:17.748Z,51.1
2018-02-24T02:51:20.106Z,51.1
2018-02-24T02:52:22.492Z,51.2
2018-02-24T02:53:24.858Z,51.1
2018-02-24T02:54:27.502Z,51.1
2018-02-24T02:55:29.880Z,51.1
2018-02-24T02:56:32.808Z,51.1
2018-02-24T02:57:35.180Z,51
2018-02-24T02:58:37.544Z,51
2018-02-24T02:59:39.907Z,51
2018-02-24T03:00:42.276Z,51
2018-02-24T03:01:44.658Z,51
2018-02-24T03:02:47.027Z,51.2
2018-02-24T03:03:49.403Z,51
2018-02-24T03:04:51.769Z,51.1
2018-02-24T03:05:54.134Z,51
2018-02-24T03:06:56.507Z,51
2018-02-24T03:07:59.156Z,50.9
2018-02-24T03:09:01.517Z,50.9
2018-02-24T03:10:03.900Z,50.9
2018-02-24T03:11:06.543Z,51
2018-02-24T03:12:08.922Z,51.1
2018-02-24T03:13:11.293Z,51.1
2018-02-24T03:14:13.658Z,51.1
2018-02-24T03:15:16.304Z,51
2018-02-24T03:16:18.684Z,51
2018-02-24T03:17:21.066Z,51
2018-02-24T03:18:23.428Z,51
2018-02-24T03:19:25.797Z,51.1
2018-02-24T03:20:28.159Z,51.1
2018-02-24T03:21:30.536Z,51.1
2018-02-24T03:22:32.913Z,51
2018-02-24T03:23:35.274Z,51.1
2018-02-24T03:24:37.651Z,51.2
2018-02-24T03:25:40.028Z,51.1
2018-02-24T03:26:42.686Z,51.2
2018-02-24T03:27:45.055Z,51.1
2018-02-24T03:28:47.425Z,51.2
2018-02-24T03:29:49.799Z,51.2
2018-02-24T03:30:52.454Z,51.3
2018-02-24T03:31:54.814Z,51.3
2018-02-24T03:32:57.177Z,51.4
2018-02-24T03:33:59.550Z,51.4
2018-02-24T03:35:02.183Z,51.4
2018-02-24T03:36:04.559Z,51.5
2018-02-24T03:37:07.203Z,51.5
2018-02-24T03:38:09.577Z,51.5
2018-02-24T03:39:11.951Z,51.5
2018-02-24T03:40:14.322Z,51.4
2018-02-24T03:41:16.691Z,51.4
2018-02-24T03:42:19.078Z,51.5
2018-02-24T03:43:21.422Z,51.3
2018-02-24T03:44:23.793Z,51.4
2018-02-24T03:45:26.157Z,51.3
2018-02-24T03:46:28.528Z,51.2
2018-02-24T03:47:31.185Z,51.3
2018-02-24T03:48:33.548Z,51.3
2018-02-24T03:49:35.917Z,51.4
2018-02-24T03:50:38.296Z,51.3
2018-02-24T03:51:40.657Z,51.3
2018-02-24T03:52:43.036Z,51.3
2018-02-24T03:53:45.407Z,51.3
2018-02-24T03:54:47.772Z,51.3
2018-02-24T03:55:50.148Z,51.5
2018-02-24T03:56:52.805Z,51.5
2018-02-24T03:57:55.175Z,51.5
2018-02-24T03:58:57.549Z,51.5
2018-02-24T03:59:59.909Z,51.6
2018-02-24T04:01:02.271Z,51.5
2018-02-24T04:02:04.643Z,51.5
2018-02-24T04:03:07.300Z,51.5
2018-02-24T04:04:09.950Z,51.5
2018-02-24T04:05:12.319Z,51.6
2018-02-24T04:06:14.695Z,51.6
2018-02-24T04:07:17.065Z,51.6
2018-02-24T04:08:19.448Z,51.6
2018-02-24T04:09:21.818Z,51.6
2018-02-24T04:10:24.178Z,51.6
2018-02-24T04:11:26.553Z,51.5
2018-02-24T04:12:28.922Z,51.6
2018-02-24T04:13:31.276Z,51.5
2018-02-24T04:14:34.218Z,51.5
2018-02-24T04:15:36.890Z,51.5
2018-02-24T04:16:39.257Z,51.6
2018-02-24T04:17:41.622Z,51.6
2018-02-24T04:18:44.277Z,51.7
2018-02-24T04:19:46.648Z,51.6
2018-02-24T04:20:49.302Z,51.6
2018-02-24T04:21:51.674Z,51.7
2018-02-24T04:22:54.030Z,51.7
2018-02-24T04:23:56.685Z,51.7
2018-02-24T04:24:59.047Z,51.7
2018-02-24T04:26:01.411Z,51.7
2018-02-24T04:27:04.075Z,51.7
2018-02-24T04:28:06.440Z,51.7
2018-02-24T04:29:08.802Z,51.7
2018-02-24T04:30:11.177Z,51.7
2018-02-24T04:31:13.541Z,51.7
2018-02-24T04:32:15.910Z,51.7
2018-02-24T04:33:18.289Z,51.7
2018-02-24T04:34:20.644Z,51.6
2018-02-24T04:35:23.014Z,51.8
2018-02-24T04:36:25.388Z,51.8
2018-02-24T04:37:27.754Z,51.7
2018-02-24T04:38:30.121Z,51.8
2018-02-24T04:39:32.493Z,51.7
2018-02-24T04:40:35.431Z,51.7
2018-02-24T04:41:37.794Z,51.7
2018-02-24T04:42:40.450Z,51.7
2018-02-24T04:43:42.818Z,51.8
2018-02-24T04:44:45.191Z,51.8
2018-02-24T04:45:47.557Z,51.9
2018-02-24T04:46:49.936Z,51.9
2018-02-24T04:47:52.300Z,51.9
2018-02-24T04:48:54.679Z,52
2018-02-24T04:49:57.049Z,52
2018-02-24T04:50:59.699Z,52
2018-02-24T04:52:02.350Z,51.9
2018-02-24T04:53:04.721Z,51.9
2018-02-24T04:54:07.082Z,51.9
2018-02-24T04:55:09.451Z,51.9
2018-02-24T04:56:11.815Z,51.9
2018-02-24T04:57:14.181Z,51.9
2018-02-24T04:58:16.837Z,52
2018-02-24T04:59:19.495Z,52
2018-02-24T05:00:21.861Z,52
2018-02-24T05:01:24.230Z,52.1
2018-02-24T05:02:26.601Z,52.1
2018-02-24T05:03:28.968Z,52.2
2018-02-24T05:04:31.338Z,52.1
2018-02-24T05:05:33.706Z,52
2018-02-24T05:06:36.070Z,52
2018-02-24T05:07:38.442Z,52
2018-02-24T05:08:40.816Z,52.1
2018-02-24T05:09:43.183Z,52.2
2018-02-24T05:10:45.559Z,52.3
2018-02-24T05:11:47.928Z,52.3
2018-02-24T05:12:50.295Z,52.4
2018-02-24T05:13:52.656Z,52.4
2018-02-24T05:14:55.039Z,52.4
2018-02-24T05:15:57.402Z,52.4
2018-02-24T05:16:59.764Z,52.3
2018-02-24T05:18:02.131Z,52.2
2018-02-24T05:19:04.505Z,52.3
2018-02-24T05:20:06.872Z,52.4
2018-02-24T05:21:09.537Z,52.3
2018-02-24T05:22:11.890Z,52.4
2018-02-24T05:23:14.260Z,52.4
2018-02-24T05:24:16.639Z,52.4
2018-02-24T05:25:19.281Z,52.5
2018-02-24T05:26:21.658Z,52.4
2018-02-24T05:27:24.328Z,52.4
2018-02-24T05:28:26.698Z,52.5
2018-02-24T05:29:29.076Z,52.5
2018-02-24T05:30:31.447Z,52.5
2018-02-24T05:31:33.802Z,52.5
2018-02-24T05:32:36.468Z,52.4
2018-02-24T05:33:38.835Z,52.4
2018-02-24T05:34:41.215Z,52.4
2018-02-24T05:35:43.868Z,52.4
2018-02-24T05:36:46.524Z,52.4
2018-02-24T05:37:48.892Z,52.3
2018-02-24T05:38:51.556Z,52.4
2018-02-24T05:39:53.911Z,52.5
2018-02-24T05:40:56.284Z,52.5
2018-02-24T05:41:58.647Z,52.7
2018-02-24T05:43:01.023Z,52.5
2018-02-24T05:44:03.675Z,52.5
2018-02-24T05:45:06.314Z,52.5
2018-02-24T05:46:08.974Z,52.5
2018-02-24T05:47:11.338Z,52.4
2018-02-24T05:48:13.711Z,52.4
2018-02-24T05:49:16.366Z,52.4
2018-02-24T05:50:18.734Z,52.5
2018-02-24T05:51:21.107Z,52.6
2018-02-24T05:52:23.473Z,52.5
2018-02-24T05:53:25.831Z,52.5
2018-02-24T05:54:28.204Z,52.5
2018-02-24T05:55:30.573Z,52.6
2018-02-24T05:56:32.930Z,52.6
2018-02-24T05:57:35.320Z,52.6
2018-02-24T05:58:37.682Z,52.6
2018-02-24T05:59:40.328Z,52.7
2018-02-24T06:00:42.700Z,52.7
2018-02-24T06:01:45.068Z,52.6
2018-02-24T06:02:47.436Z,52.7
2018-02-24T06:03:49.813Z,52.7
2018-02-24T06:04:52.176Z,52.7
2018-02-24T06:05:54.544Z,52.6
2018-02-24T06:06:56.920Z,52.5
2018-02-24T06:07:59.560Z,52.5
2018-02-24T06:09:01.926Z,52.5
2018-02-24T06:10:04.299Z,52.5
2018-02-24T06:11:07.241Z,52.6
2018-02-24T06:12:09.601Z,52.6
2018-02-24T06:13:12.267Z,52.7
2018-02-24T06:14:14.636Z,52.7
2018-02-24T06:15:17.014Z,52.7
2018-02-24T06:16:19.948Z,52.7
2018-02-24T06:17:22.593Z,52.8
2018-02-24T06:18:24.962Z,52.7
2018-02-24T06:19:27.342Z,52.7
2018-02-24T06:20:29.709Z,52.6
2018-02-24T06:21:32.065Z,52.5
2018-02-24T06:22:34.438Z,52.5
2018-02-24T06:23:37.084Z,52.5
2018-02-24T06:24:39.453Z,52.7
2018-02-24T06:25:41.813Z,52.7
2018-02-24T06:26:44.177Z,52.8
2018-02-24T06:27:46.548Z,52.8
2018-02-24T06:28:48.915Z,52.8
2018-02-24T06:29:51.285Z,52.8
2018-02-24T06:30:53.649Z,52.8
2018-02-24T06:31:56.023Z,52.8
2018-02-24T06:32:58.391Z,52.7
2018-02-24T06:34:00.760Z,52.7
2018-02-24T06:35:03.124Z,52.6
2018-02-24T06:36:05.489Z,52.6
2018-02-24T06:37:07.864Z,52.8
2018-02-24T06:38:10.222Z,52.8
2018-02-24T06:39:12.587Z,52.9
2018-02-24T06:40:14.949Z,52.8
2018-02-24T06:41:17.324Z,52.9
2018-02-24T06:42:19.695Z,53
2018-02-24T06:43:22.064Z,53.1
2018-02-24T06:44:24.436Z,53.2
2018-02-24T06:45:26.816Z,53.1
2018-02-24T06:46:29.172Z,53
2018-02-24T06:47:31.545Z,53
2018-02-24T06:48:33.907Z,53.2
2018-02-24T06:49:36.282Z,53.1
2018-02-24T06:50:38.649Z,53
2018-02-24T06:51:41.020Z,52.9
2018-02-24T06:52:43.382Z,52.9
2018-02-24T06:53:45.757Z,52.8
2018-02-24T06:54:48.391Z,52.8
2018-02-24T06:55:50.754Z,52.8
2018-02-24T06:56:53.416Z,52.8
2018-02-24T06:57:56.120Z,52.8
2018-02-24T06:58:58.778Z,52.9
2018-02-24T07:00:01.156Z,52.8
2018-02-24T07:01:03.516Z,52.8
2018-02-24T07:02:05.892Z,52.9
2018-02-24T07:03:08.253Z,53
2018-02-24T07:04:10.613Z,52.9
2018-02-24T07:05:12.982Z,52.9
2018-02-24T07:06:15.354Z,52.9
2018-02-24T07:07:17.721Z,52.8
2018-02-24T07:08:20.098Z,52.8
2018-02-24T07:09:23.030Z,52.7
2018-02-24T07:10:25.390Z,52.8
2018-02-24T07:11:27.765Z,52.8
2018-02-24T07:12:30.129Z,52.7
2018-02-24T07:13:32.503Z,52.7
2018-02-24T07:14:34.874Z,52.7
2018-02-24T07:15:37.532Z,52.8
2018-02-24T07:16:39.900Z,52.8
2018-02-24T07:17:42.271Z,52.8
2018-02-24T07:18:44.631Z,52.8
2018-02-24T07:19:46.998Z,52.9
2018-02-24T07:20:49.361Z,52.9
2018-02-24T07:21:51.736Z,52.9
2018-02-24T07:22:54.102Z,53.1
2018-02-24T07:23:56.468Z,53
2018-02-24T07:24:58.834Z,53.1
2018-02-24T07:26:01.241Z,53
2018-02-24T07:27:03.584Z,52.9
2018-02-24T07:28:05.947Z,52.9
2018-02-24T07:29:08.608Z,53
2018-02-24T07:30:10.987Z,53
2018-02-24T07:31:13.353Z,53
2018-02-24T07:32:15.726Z,53
2018-02-24T07:33:18.087Z,52.8
2018-02-24T07:34:20.455Z,52.8
2018-02-24T07:35:22.827Z,53.1
2018-02-24T07:36:25.199Z,53
2018-02-24T07:37:27.830Z,53
2018-02-24T07:38:30.210Z,52.9
2018-02-24T07:39:32.575Z,52.5
2018-02-24T07:40:34.942Z,52.4
2018-02-24T07:41:37.305Z,52.4
2018-02-24T07:42:39.686Z,52.4
2018-02-24T07:43:42.058Z,52.4
2018-02-24T07:44:44.418Z,52.5
2018-02-24T07:45:46.789Z,52.6
2018-02-24T07:46:49.160Z,52.8
2018-02-24T07:47:51.521Z,53.1
2018-02-24T07:48:53.897Z,53.4
2018-02-24T07:49:56.260Z,53.8
2018-02-24T07:50:58.634Z,54.1
2018-02-24T07:52:01.014Z,54.4
2018-02-24T07:53:03.658Z,54.7
2018-02-24T07:54:06.038Z,55.2
2018-02-24T07:55:08.713Z,55.3
2018-02-24T07:56:11.081Z,55.4
2018-02-24T07:57:13.453Z,55.5
2018-02-24T07:58:15.815Z,55.7
2018-02-24T07:59:18.180Z,55.9
2018-02-24T08:00:20.555Z,55.8
2018-02-24T08:01:23.196Z,55.8
2018-02-24T08:02:25.573Z,55.6
2018-02-24T08:03:28.511Z,55.4
2018-02-24T08:04:30.886Z,55.3
2018-02-24T08:05:33.547Z,55.1
2018-02-24T08:06:35.919Z,55
2018-02-24T08:07:38.298Z,55.1
2018-02-24T08:08:40.653Z,55
2018-02-24T08:09:43.030Z,54.7
2018-02-24T08:10:45.401Z,54.5
2018-02-24T08:11:47.769Z,54.5
2018-02-24T08:12:50.434Z,54.7
2018-02-24T08:13:52.812Z,54.6
2018-02-24T08:14:55.462Z,54.5
2018-02-24T08:15:57.853Z,54.8
2018-02-24T08:17:00.519Z,54.6
2018-02-24T08:18:02.885Z,54.5
2018-02-24T08:19:05.552Z,54.6
2018-02-24T08:20:08.207Z,54.8
2018-02-24T08:21:10.578Z,54.2
2018-02-24T08:22:12.959Z,54
2018-02-24T08:23:15.329Z,53.9
2018-02-24T08:24:17.700Z,53.8
2018-02-24T08:25:20.085Z,53.7
2018-02-24T08:26:22.757Z,53.6
2018-02-24T08:27:25.146Z,53.6
2018-02-24T08:28:27.515Z,53.8
2018-02-24T08:29:29.892Z,54
2018-02-24T08:30:32.268Z,54
2018-02-24T08:31:34.643Z,54.1
2018-02-24T08:32:37.013Z,54.1
2018-02-24T08:33:39.400Z,54.2
2018-02-24T08:34:41.778Z,54.3
2018-02-24T08:35:44.161Z,54.1
2018-02-24T08:36:46.529Z,54
2018-02-24T08:37:48.907Z,53.8
2018-02-24T08:38:51.287Z,53.6
2018-02-24T08:39:53.649Z,53.5
2018-02-24T08:40:56.021Z,53.4
2018-02-24T08:41:58.398Z,53.1
2018-02-24T08:43:00.770Z,53
2018-02-24T08:44:03.140Z,52.8
2018-02-24T08:45:05.801Z,52.7
2018-02-24T08:46:08.176Z,52.6
2018-02-24T08:47:10.559Z,52.4
2018-02-24T08:48:12.942Z,52.5
2018-02-24T08:49:15.309Z,52.6
2018-02-24T08:50:18.253Z,52.6
2018-02-24T08:51:20.622Z,52.8
2018-02-24T08:52:22.990Z,52.7
2018-02-24T08:53:25.380Z,52.8
2018-02-24T08:54:28.100Z,52.8
2018-02-24T08:55:30.467Z,52.5
2018-02-24T08:56:32.852Z,52.4
2018-02-24T08:57:35.220Z,52.4
2018-02-24T08:58:37.881Z,51.7
2018-02-24T08:59:40.265Z,51.3
2018-02-24T09:00:42.934Z,51.1
2018-02-24T09:01:45.312Z,51.3
2018-02-24T09:02:47.692Z,51
2018-02-24T09:03:50.071Z,50.8
2018-02-24T09:04:52.445Z,50.6
2018-02-24T09:05:54.824Z,50.2
2018-02-24T09:06:57.202Z,49.3
2018-02-24T09:07:59.561Z,48.9
2018-02-24T09:09:01.933Z,48.4
2018-02-24T09:10:04.608Z,48.9
2018-02-24T09:11:06.981Z,49.6
2018-02-24T09:12:09.647Z,49.8
2018-02-24T09:13:12.021Z,49.5
2018-02-24T09:14:14.394Z,49.2
2018-02-24T09:15:16.789Z,49.2
2018-02-24T09:16:19.470Z,49.1
2018-02-24T09:17:21.906Z,48.8
2018-02-24T09:18:24.567Z,48.9
2018-02-24T09:19:26.944Z,48.6
2018-02-24T09:20:29.320Z,49
2018-02-24T09:21:31.705Z,49.4
2018-02-24T09:22:34.075Z,50
2018-02-24T09:23:36.759Z,50.6
2018-02-24T09:24:39.148Z,51.3
2018-02-24T09:25:41.799Z,52
2018-02-24T09:26:44.171Z,52.4
2018-02-24T09:27:46.551Z,52.8
2018-02-24T09:28:48.913Z,53
2018-02-24T09:29:51.583Z,53.1
2018-02-24T09:30:53.963Z,52.7
2018-02-24T09:31:56.325Z,52.3
2018-02-24T09:32:58.702Z,52.4
2018-02-24T09:34:01.085Z,52.1
2018-02-24T09:35:03.460Z,52
2018-02-24T09:36:05.846Z,52
2018-02-24T09:37:08.504Z,52
2018-02-24T09:38:10.878Z,52.1
2018-02-24T09:39:13.535Z,52
2018-02-24T09:40:15.917Z,52.2
2018-02-24T09:41:18.603Z,51.9
2018-02-24T09:42:20.980Z,51.4
2018-02-24T09:43:23.366Z,50.9
2018-02-24T09:44:26.036Z,50.8
2018-02-24T09:45:28.408Z,50.3
2018-02-24T09:46:30.788Z,49.6
2018-02-24T09:47:33.167Z,50.1
2018-02-24T09:48:35.534Z,50.7
2018-02-24T09:49:37.917Z,51.1
2018-02-24T09:50:40.285Z,51.2
2018-02-24T09:51:42.656Z,50.8
2018-02-24T09:52:45.039Z,50.5
2018-02-24T09:53:47.695Z,50.1
2018-02-24T09:54:50.347Z,50
2018-02-24T09:55:52.739Z,49.8
2018-02-24T09:56:55.111Z,49.8
2018-02-24T09:57:57.782Z,49.2
2018-02-24T09:59:00.153Z,48.6
2018-02-24T10:00:02.547Z,48.8
2018-02-24T10:01:04.919Z,48.4
2018-02-24T10:02:07.297Z,48.5
2018-02-24T10:03:09.663Z,48.4
2018-02-24T10:04:12.371Z,48.4
2018-02-24T10:05:14.706Z,48.5
2018-02-24T10:06:17.079Z,48.7
2018-02-24T10:07:19.450Z,49
2018-02-24T10:08:21.821Z,49.6
2018-02-24T10:09:24.202Z,50
2018-02-24T10:10:26.863Z,50.2
2018-02-24T10:11:29.521Z,50.4
2018-02-24T10:12:31.904Z,50.3
2018-02-24T10:13:34.277Z,49.7
2018-02-24T10:14:36.652Z,49
2018-02-24T10:15:39.045Z,48.5
2018-02-24T10:16:41.691Z,48.4
2018-02-24T10:17:44.073Z,48.5
2018-02-24T10:18:46.453Z,48.6
2018-02-24T10:19:49.148Z,48.1
2018-02-24T10:20:51.525Z,47.6
2018-02-24T10:21:53.905Z,48.2
2018-02-24T10:22:56.271Z,48.6
2018-02-24T10:23:58.644Z,48.7
2018-02-24T10:25:01.123Z,48.1
2018-02-24T10:26:03.402Z,47.9
2018-02-24T10:27:05.781Z,47.6
2018-02-24T10:28:08.157Z,47.7
2018-02-24T10:29:10.533Z,48.2
2018-02-24T10:30:12.917Z,48.6
2018-02-24T10:31:15.285Z,49
2018-02-24T10:32:17.665Z,49.3
2018-02-24T10:33:20.034Z,49.3
2018-02-24T10:34:22.413Z,49.3
2018-02-24T10:35:24.797Z,49.1
2018-02-24T10:36:27.744Z,49.2
2018-02-24T10:37:30.704Z,49.5
2018-02-24T10:38:33.082Z,49.5
2018-02-24T10:39:35.451Z,49.3
2018-02-24T10:40:37.843Z,49.4
2018-02-24T10:41:40.224Z,49.1
2018-02-24T10:42:42.597Z,48.8
2018-02-24T10:43:44.970Z,48.2
2018-02-24T10:44:47.351Z,47.3
2018-02-24T10:45:49.730Z,46.5
2018-02-24T10:46:52.120Z,45.9
2018-02-24T10:47:54.492Z,45.6
2018-02-24T10:48:56.867Z,45.3
2018-02-24T10:49:59.539Z,45.5
2018-02-24T10:51:01.917Z,45.6
2018-02-24T10:52:04.294Z,45.6
2018-02-24T10:53:06.670Z,45.3
2018-02-24T10:54:09.047Z,45.1
2018-02-24T10:55:11.718Z,45
2018-02-24T10:56:14.097Z,45.1
2018-02-24T10:57:16.476Z,45.3
2018-02-24T10:58:19.137Z,45.6
2018-02-24T10:59:21.519Z,45.8
2018-02-24T11:00:23.900Z,46
2018-02-24T11:01:26.278Z,46
2018-02-24T11:02:28.646Z,45.9
2018-02-24T11:03:31.023Z,45.5
2018-02-24T11:04:33.405Z,45.6
2018-02-24T11:05:35.771Z,45.6
2018-02-24T11:06:38.155Z,45.4
2018-02-24T11:07:40.819Z,45.4
2018-02-24T11:08:43.467Z,45.6
2018-02-24T11:09:45.849Z,45.7
2018-02-24T11:10:48.785Z,46
2018-02-24T11:11:51.158Z,46.1
2018-02-24T11:12:53.545Z,46
2018-02-24T11:13:56.180Z,46.3
2018-02-24T11:14:58.558Z,46.4
2018-02-24T11:16:01.219Z,46.6
2018-02-24T11:17:03.878Z,47.2
2018-02-24T11:18:06.250Z,47.8
2018-02-24T11:19:08.623Z,48.1
2018-02-24T11:20:10.988Z,48.1
2018-02-24T11:21:13.657Z,48.2
2018-02-24T11:22:16.034Z,47.7
2018-02-24T11:23:18.415Z,47.4
2018-02-24T11:24:20.797Z,47.1
2018-02-24T11:25:23.162Z,46.8
2018-02-24T11:26:25.536Z,46.7
2018-02-24T11:27:27.912Z,46.6
2018-02-24T11:28:30.269Z,46.1
2018-02-24T11:29:32.652Z,46
2018-02-24T11:30:35.024Z,46
2018-02-24T11:31:37.410Z,46.2
2018-02-24T11:32:39.782Z,46.4
2018-02-24T11:33:42.156Z,46.7
2018-02-24T11:34:44.532Z,47.3
2018-02-24T11:35:46.900Z,47.7
2018-02-24T11:36:49.266Z,47.8
2018-02-24T11:37:51.938Z,48
2018-02-24T11:38:54.307Z,48.1
2018-02-24T11:39:56.957Z,48.4
2018-02-24T11:40:59.617Z,48.5
2018-02-24T11:42:01.993Z,48.7
2018-02-24T11:43:04.568Z,48.8
2018-02-24T11:44:06.945Z,48.6
2018-02-24T11:45:09.314Z,48.5
2018-02-24T11:46:11.691Z,47.9
2018-02-24T11:47:14.073Z,47.1
2018-02-24T11:48:16.450Z,46.8
2018-02-24T11:49:19.109Z,46.5
2018-02-24T11:50:21.478Z,46.2
2018-02-24T11:51:24.409Z,46.3
2018-02-24T11:52:26.793Z,46.3
2018-02-24T11:53:29.160Z,46.5
2018-02-24T11:54:31.535Z,46.6
2018-02-24T11:55:34.201Z,46.2
2018-02-24T11:56:36.574Z,45.9
2018-02-24T11:57:38.958Z,45.6
2018-02-24T11:58:41.334Z,45.5
2018-02-24T11:59:43.985Z,45.3
2018-02-24T12:00:46.374Z,45
2018-02-24T12:01:48.751Z,45
2018-02-24T12:02:51.132Z,44.9
2018-02-24T12:03:53.510Z,44.8
2018-02-24T12:04:55.880Z,44.7
2018-02-24T12:05:58.257Z,44.8
2018-02-24T12:07:00.636Z,44.9
2018-02-24T12:08:03.013Z,45
2018-02-24T12:09:05.399Z,45.1
2018-02-24T12:10:08.049Z,45.3
2018-02-24T12:11:10.421Z,45.2
2018-02-24T12:12:13.089Z,45.2
2018-02-24T12:13:15.458Z,45.2
2018-02-24T12:14:17.832Z,45.3
2018-02-24T12:15:20.207Z,45.2
2018-02-24T12:16:22.866Z,45.3
2018-02-24T12:17:25.523Z,45.3
2018-02-24T12:18:27.905Z,45.5
2018-02-24T12:19:30.265Z,46.1
2018-02-24T12:20:32.653Z,46.5
2018-02-24T12:21:35.305Z,46.9
2018-02-24T12:22:37.677Z,47.2
2018-02-24T12:23:40.061Z,47.3
2018-02-24T12:24:42.438Z,47.3
2018-02-24T12:25:44.806Z,47
2018-02-24T12:26:47.199Z,46.5
2018-02-24T12:27:49.853Z,46
2018-02-24T12:28:52.510Z,45.8
2018-02-24T12:29:54.893Z,45.5
2018-02-24T12:30:57.266Z,45.5
2018-02-24T12:31:59.643Z,45.3
2018-02-24T12:33:02.020Z,45.1
2018-02-24T12:34:04.388Z,45
2018-02-24T12:35:06.766Z,45
2018-02-24T12:36:09.139Z,45.2
2018-02-24T12:37:11.527Z,45.4
2018-02-24T12:38:14.184Z,45.3
2018-02-24T12:39:16.553Z,45.4
2018-02-24T12:40:18.929Z,45.3
2018-02-24T12:41:21.303Z,45.4
2018-02-24T12:42:23.960Z,45.3
2018-02-24T12:43:26.333Z,45.4
2018-02-24T12:44:28.706Z,45.8
2018-02-24T12:45:31.087Z,46
2018-02-24T12:46:33.483Z,46.4
2018-02-24T12:47:35.843Z,46.6
2018-02-24T12:48:38.214Z,46.7
2018-02-24T12:49:40.651Z,46.6
2018-02-24T12:50:44.014Z,46.8
2018-02-24T12:51:46.404Z,46.8
2018-02-24T12:52:48.781Z,46.7
2018-02-24T12:53:51.160Z,46.6
2018-02-24T12:54:53.822Z,46.5
2018-02-24T12:55:56.193Z,46.2
2018-02-24T12:56:58.569Z,45.9
2018-02-24T12:58:00.954Z,45.9
2018-02-24T12:59:03.602Z,45.9
2018-02-24T13:00:05.968Z,45.9
2018-02-24T13:01:08.353Z,45.6
2018-02-24T13:02:10.724Z,45.8
2018-02-24T13:03:13.098Z,45.6
2018-02-24T13:04:15.472Z,45.5
2018-02-24T13:05:17.911Z,45.4
2018-02-24T13:06:20.232Z,45.3
2018-02-24T13:07:22.617Z,45
2018-02-24T13:08:24.980Z,45
2018-02-24T13:09:27.643Z,45.1
2018-02-24T13:10:30.022Z,45.3
2018-02-24T13:11:32.388Z,45.4
2018-02-24T13:12:34.764Z,45.4
2018-02-24T13:13:37.144Z,45.3
2018-02-24T13:14:39.522Z,44.9
2018-02-24T13:15:41.913Z,44.7
2018-02-24T13:16:44.292Z,44.3
2018-02-24T13:17:46.964Z,44.4
2018-02-24T13:18:49.354Z,44.3
2018-02-24T13:19:51.726Z,44.2
2018-02-24T13:20:54.103Z,44.2
2018-02-24T13:21:56.486Z,44.1
2018-02-24T13:22:58.862Z,44.1
2018-02-24T13:24:01.243Z,44.2
2018-02-24T13:25:03.905Z,44.4
2018-02-24T13:26:06.556Z,44.3
2018-02-24T13:27:08.952Z,44
2018-02-24T13:28:11.336Z,43.9
2018-02-24T13:29:13.993Z,43.3
2018-02-24T13:30:16.373Z,43.3
2018-02-24T13:31:18.753Z,43.2
2018-02-24T13:32:21.489Z,43.1
2018-02-24T13:33:23.794Z,43.2
2018-02-24T13:34:26.470Z,43.2
2018-02-24T13:35:28.854Z,43.3
2018-02-24T13:36:31.238Z,43
2018-02-24T13:37:33.660Z,42.9
2018-02-24T13:38:36.282Z,42.4
2018-02-24T13:39:38.942Z,42.2
2018-02-24T13:40:41.326Z,42
2018-02-24T13:41:43.697Z,42.3
2018-02-24T13:42:46.077Z,42.3
2018-02-24T13:43:48.460Z,42.5
2018-02-24T13:44:50.844Z,42.6
2018-02-24T13:45:53.505Z,42.8
2018-02-24T13:46:56.174Z,42.6
2018-02-24T13:47:58.547Z,42.6
2018-02-24T13:49:00.934Z,42.9
2018-02-24T13:50:03.324Z,43.2
2018-02-24T13:51:05.698Z,43.1
2018-02-24T13:52:08.085Z,43.2
2018-02-24T13:53:10.465Z,43.3
2018-02-24T13:54:12.839Z,43.3
2018-02-24T13:55:15.209Z,43.4
2018-02-24T13:56:17.588Z,43.6
2018-02-24T13:57:20.244Z,43.5
2018-02-24T13:58:22.633Z,43.3